sensor_id;sensor_type;location;lat;lon;timestamp;pressure;altitude;pressure_sealevel;temperature;humidity
79455;BME280;68900;52.134;5.420;2023-06-22T00:01:45;102065.63;;;20.19;69.21
79455;BME280;68900;52.134;5.420;2023-06-22T00:04:16;102058.97;;;20.13;69.01
79455;BME280;68900;52.134;5.420;2023-06-22T00:06:44;102058.81;;;20.15;69.49
79455;BME280;68900;52.134;5.420;2023-06-22T00:09:45;102065.19;;;20.07;69.39
79455;BME280;68900;52.134;5.420;2023-06-22T00:12:13;102071.22;;;20.03;69.39
79455;BME280;68900;52.134;5.420;2023-06-22T00:15:09;102079.94;;;20.06;68.76
79455;BME280;68900;52.134;5.420;2023-06-22T00:17:50;102063.66;;;20.05;69.24
79455;BME280;68900;52.134;5.420;2023-06-22T00:23:13;102066.16;;;19.92;70.06
79455;BME280;68900;52.134;5.420;2023-06-22T00:25:57;102070.31;;;19.88;70.46
79455;BME280;68900;52.134;5.420;2023-06-22T00:28:24;102068.13;;;19.83;70.72
79455;BME280;68900;52.134;5.420;2023-06-22T00:30:54;102062.69;;;19.75;70.97
79455;BME280;68900;52.134;5.420;2023-06-22T00:33:34;102062.50;;;19.76;70.56
79455;BME280;68900;52.134;5.420;2023-06-22T00:36:10;102052.41;;;19.77;70.79
79455;BME280;68900;52.134;5.420;2023-06-22T00:38:52;102052.47;;;19.69;70.93
79455;BME280;68900;52.134;5.420;2023-06-22T00:41:23;102049.03;;;19.67;71.20
79455;BME280;68900;52.134;5.420;2023-06-22T00:43:51;102037.22;;;19.66;71.40
79455;BME280;68900;52.134;5.420;2023-06-22T00:46:25;102050.44;;;19.63;71.51
79455;BME280;68900;52.134;5.420;2023-06-22T00:49:13;102043.25;;;19.62;70.85
79455;BME280;68900;52.134;5.420;2023-06-22T00:51:47;102044.97;;;19.63;71.06
79455;BME280;68900;52.134;5.420;2023-06-22T00:54:24;102042.59;;;19.60;70.90
79455;BME280;68900;52.134;5.420;2023-06-22T00:57:11;102041.44;;;19.54;71.23
79455;BME280;68900;52.134;5.420;2023-06-22T00:59:48;102046.41;;;19.51;71.63
79455;BME280;68900;52.134;5.420;2023-06-22T01:02:33;102044.22;;;19.46;71.55
79455;BME280;68900;52.134;5.420;2023-06-22T01:05:14;102036.53;;;19.41;71.45
79455;BME280;68900;52.134;5.420;2023-06-22T01:07:45;102036.53;;;19.41;70.70
79455;BME280;68900;52.134;5.420;2023-06-22T01:10:52;102034.00;;;19.32;71.70
79455;BME280;68900;52.134;5.420;2023-06-22T01:17:09;102048.88;;;19.29;71.26
79455;BME280;68900;52.134;5.420;2023-06-22T01:19:57;102051.50;;;19.23;71.50
79455;BME280;68900;52.134;5.420;2023-06-22T01:28:56;102029.81;;;19.13;71.74
79455;BME280;68900;52.134;5.420;2023-06-22T01:31:39;102037.03;;;19.06;71.98
79455;BME280;68900;52.134;5.420;2023-06-22T01:34:11;102044.91;;;19.01;72.43
79455;BME280;68900;52.134;5.420;2023-06-22T01:37:26;102044.03;;;19.01;72.14
79455;BME280;68900;52.134;5.420;2023-06-22T01:40:01;102045.25;;;18.98;72.71
79455;BME280;68900;52.134;5.420;2023-06-22T01:42:32;102038.28;;;18.95;72.84
79455;BME280;68900;52.134;5.420;2023-06-22T01:45:21;102042.38;;;18.91;72.74
79455;BME280;68900;52.134;5.420;2023-06-22T01:48:25;102042.38;;;18.91;72.35
79455;BME280;68900;52.134;5.420;2023-06-22T01:50:53;102042.06;;;18.86;72.95
79455;BME280;68900;52.134;5.420;2023-06-22T01:53:22;102038.66;;;18.84;72.85
79455;BME280;68900;52.134;5.420;2023-06-22T01:56:04;102030.13;;;18.79;72.89
79455;BME280;68900;52.134;5.420;2023-06-22T01:59:11;102028.59;;;18.77;72.77
79455;BME280;68900;52.134;5.420;2023-06-22T02:01:59;102039.22;;;18.72;72.92
79455;BME280;68900;52.134;5.420;2023-06-22T02:05:02;102030.47;;;18.68;73.59
79455;BME280;68900;52.134;5.420;2023-06-22T02:11:09;102019.78;;;18.59;73.35
79455;BME280;68900;52.134;5.420;2023-06-22T02:13:39;102023.16;;;18.61;73.20
79455;BME280;68900;52.134;5.420;2023-06-22T02:19:02;102027.94;;;18.50;73.53
79455;BME280;68900;52.134;5.420;2023-06-22T02:21:53;102021.31;;;18.45;73.92
79455;BME280;68900;52.134;5.420;2023-06-22T02:24:46;102023.34;;;18.43;73.20
79455;BME280;68900;52.134;5.420;2023-06-22T02:27:44;102029.66;;;18.43;73.45
79455;BME280;68900;52.134;5.420;2023-06-22T02:30:34;102022.16;;;18.37;73.75
79455;BME280;68900;52.134;5.420;2023-06-22T02:33:22;102023.53;;;18.33;73.63
79455;BME280;68900;52.134;5.420;2023-06-22T02:35:57;102020.78;;;18.33;74.30
79455;BME280;68900;52.134;5.420;2023-06-22T02:38:42;102028.63;;;18.36;73.81
79455;BME280;68900;52.134;5.420;2023-06-22T02:41:29;102019.25;;;18.39;73.42
79455;BME280;68900;52.134;5.420;2023-06-22T02:44:18;102032.06;;;18.38;73.10
79455;BME280;68900;52.134;5.420;2023-06-22T02:46:53;102023.53;;;18.33;73.77
79455;BME280;68900;52.134;5.420;2023-06-22T02:50:00;102020.63;;;18.27;73.61
79455;BME280;68900;52.134;5.420;2023-06-22T02:55:40;102011.75;;;18.25;74.28
79455;BME280;68900;52.134;5.420;2023-06-22T02:58:19;102011.41;;;18.20;74.67
79455;BME280;68900;52.134;5.420;2023-06-22T03:01:02;102021.84;;;18.16;74.09
79455;BME280;68900;52.134;5.420;2023-06-22T03:03:34;102015.03;;;18.12;74.59
79455;BME280;68900;52.134;5.420;2023-06-22T03:06:10;102011.59;;;18.10;74.70
79455;BME280;68900;52.134;5.420;2023-06-22T03:09:07;102016.56;;;18.06;74.42
79455;BME280;68900;52.134;5.420;2023-06-22T03:12:17;102025.25;;;18.02;74.67
79455;BME280;68900;52.134;5.420;2023-06-22T03:18:54;102023.22;;;17.96;74.66
79455;BME280;68900;52.134;5.420;2023-06-22T03:25:10;102026.59;;;17.90;74.24
79455;BME280;68900;52.134;5.420;2023-06-22T03:27:47;102030.72;;;17.86;74.72
79455;BME280;68900;52.134;5.420;2023-06-22T03:30:57;102017.75;;;17.88;74.89
79455;BME280;68900;52.134;5.420;2023-06-22T03:36:24;102008.19;;;17.84;75.12
79455;BME280;68900;52.134;5.420;2023-06-22T03:38:52;101999.66;;;17.87;75.55
79455;BME280;68900;52.134;5.420;2023-06-22T03:41:19;101999.00;;;17.85;75.43
79455;BME280;68900;52.134;5.420;2023-06-22T03:43:59;102002.91;;;17.82;75.56
79455;BME280;68900;52.134;5.420;2023-06-22T03:46:30;102003.06;;;17.81;75.79
79455;BME280;68900;52.134;5.420;2023-06-22T03:49:10;102000.31;;;17.81;75.54
79455;BME280;68900;52.134;5.420;2023-06-22T03:52:01;101997.94;;;17.78;75.54
79455;BME280;68900;52.134;5.420;2023-06-22T03:54:30;101998.09;;;17.76;75.87
79455;BME280;68900;52.134;5.420;2023-06-22T03:57:11;101991.78;;;17.67;76.69
79455;BME280;68900;52.134;5.420;2023-06-22T03:59:46;101991.47;;;17.71;76.25
79455;BME280;68900;52.134;5.420;2023-06-22T04:03:07;101988.91;;;17.77;76.14
79455;BME280;68900;52.134;5.420;2023-06-22T04:06:14;101989.09;;;17.84;75.56
79455;BME280;68900;52.134;5.420;2023-06-22T04:09:10;101991.13;;;17.82;75.96
79455;BME280;68900;52.134;5.420;2023-06-22T04:11:56;101983.94;;;17.81;75.35
79455;BME280;68900;52.134;5.420;2023-06-22T04:14:31;101986.31;;;17.76;76.05
79455;BME280;68900;52.134;5.420;2023-06-22T04:17:28;101986.31;;;17.76;76.46
79455;BME280;68900;52.134;5.420;2023-06-22T04:19:56;101973.38;;;17.78;76.50
79455;BME280;68900;52.134;5.420;2023-06-22T04:22:23;101982.41;;;17.78;76.95
79455;BME280;68900;52.134;5.420;2023-06-22T04:25:02;101981.22;;;17.81;76.61
79455;BME280;68900;52.134;5.420;2023-06-22T04:27:30;101980.03;;;17.91;76.78
79455;BME280;68900;52.134;5.420;2023-06-22T04:30:38;101976.63;;;17.89;76.50
79455;BME280;68900;52.134;5.420;2023-06-22T04:33:25;101981.38;;;18.03;76.38
79455;BME280;68900;52.134;5.420;2023-06-22T04:35:55;101982.41;;;18.02;77.19
79455;BME280;68900;52.134;5.420;2023-06-22T04:38:31;101980.56;;;18.03;76.93
79455;BME280;68900;52.134;5.420;2023-06-22T04:41:01;101981.19;;;18.13;76.66
79455;BME280;68900;52.134;5.420;2023-06-22T04:43:37;101966.72;;;18.13;76.58
79455;BME280;68900;52.134;5.420;2023-06-22T04:46:09;101973.53;;;18.08;76.91
79455;BME280;68900;52.134;5.420;2023-06-22T04:49:00;101985.50;;;18.07;77.26
79455;BME280;68900;52.134;5.420;2023-06-22T04:51:28;101983.91;;;18.29;76.99
79455;BME280;68900;52.134;5.420;2023-06-22T04:58:10;101991.03;;;18.46;76.13
79455;BME280;68900;52.134;5.420;2023-06-22T05:01:04;101990.38;;;18.36;76.18
79455;BME280;68900;52.134;5.420;2023-06-22T05:04:22;101991.28;;;18.21;76.87
79455;BME280;68900;52.134;5.420;2023-06-22T05:07:10;101985.97;;;18.27;76.89
79455;BME280;68900;52.134;5.420;2023-06-22T05:26:32;101985.72;;;18.69;75.95
79455;BME280;68900;52.134;5.420;2023-06-22T05:29:13;101982.06;;;18.85;75.57
79455;BME280;68900;52.134;5.420;2023-06-22T05:32:14;101984.09;;;18.91;76.75
79455;BME280;68900;52.134;5.420;2023-06-22T05:38:59;101986.16;;;18.89;77.28
79455;BME280;68900;52.134;5.420;2023-06-22T05:41:49;101984.22;;;18.97;77.09
79455;BME280;68900;52.134;5.420;2023-06-22T05:44:45;101989.13;;;19.10;76.17
79455;BME280;68900;52.134;5.420;2023-06-22T05:47:27;101993.50;;;19.19;76.72
79455;BME280;68900;52.134;5.420;2023-06-22T05:49:54;101999.84;;;19.20;76.34
79455;BME280;68900;52.134;5.420;2023-06-22T05:56:20;101990.13;;;19.17;77.21
79455;BME280;68900;52.134;5.420;2023-06-22T05:58:55;102002.59;;;19.20;77.18
79455;BME280;68900;52.134;5.420;2023-06-22T06:01:23;101996.66;;;19.08;78.02
79455;BME280;68900;52.134;5.420;2023-06-22T06:04:10;101994.69;;;19.25;78.08
79455;BME280;68900;52.134;5.420;2023-06-22T06:06:45;102000.25;;;19.39;77.22
79455;BME280;68900;52.134;5.420;2023-06-22T06:09:44;101987.88;;;19.52;77.56
79455;BME280;68900;52.134;5.420;2023-06-22T06:12:15;101993.63;;;19.65;76.33
79455;BME280;68900;52.134;5.420;2023-06-22T06:14:48;101993.84;;;19.78;76.02
79455;BME280;68900;52.134;5.420;2023-06-22T06:17:20;101990.78;;;19.96;75.57
79455;BME280;68900;52.134;5.420;2023-06-22T06:19:47;101985.19;;;19.89;75.18
79455;BME280;68900;52.134;5.420;2023-06-22T06:22:59;101982.75;;;19.94;75.64
79455;BME280;68900;52.134;5.420;2023-06-22T06:25:28;101981.63;;;20.03;75.50
79455;BME280;68900;52.134;5.420;2023-06-22T06:28:13;101975.91;;;20.13;75.39
79455;BME280;68900;52.134;5.420;2023-06-22T06:31:02;101977.34;;;20.23;74.47
79455;BME280;68900;52.134;5.420;2023-06-22T06:33:39;101977.28;;;20.32;74.40
79455;BME280;68900;52.134;5.420;2023-06-22T06:36:13;101964.91;;;20.36;73.96
79455;BME280;68900;52.134;5.420;2023-06-22T06:41:19;101961.59;;;20.55;73.62
79455;BME280;68900;52.134;5.420;2023-06-22T06:44:15;101963.22;;;20.64;73.50
79455;BME280;68900;52.134;5.420;2023-06-22T06:46:50;101959.81;;;20.62;73.90
79455;BME280;68900;52.134;5.420;2023-06-22T06:49:32;101955.09;;;20.70;73.09
79455;BME280;68900;52.134;5.420;2023-06-22T06:52:34;101963.94;;;20.87;72.89
79455;BME280;68900;52.134;5.420;2023-06-22T06:55:35;101957.72;;;20.93;72.22
79455;BME280;68900;52.134;5.420;2023-06-22T07:39:52;101945.91;;;22.20;66.24
79455;BME280;68900;52.134;5.420;2023-06-22T07:46:26;101929.59;;;22.46;65.58
79455;BME280;68900;52.134;5.420;2023-06-22T07:49:32;101919.53;;;22.60;65.43
79455;BME280;68900;52.134;5.420;2023-06-22T07:52:14;101919.53;;;22.60;65.30
79455;BME280;68900;52.134;5.420;2023-06-22T07:55:08;101914.88;;;22.61;65.10
79455;BME280;68900;52.134;5.420;2023-06-22T07:57:55;101920.03;;;22.77;65.24
79455;BME280;68900;52.134;5.420;2023-06-22T08:03:37;101921.59;;;22.93;63.67
79455;BME280;68900;52.134;5.420;2023-06-22T08:06:17;101919.31;;;23.03;62.65
79455;BME280;68900;52.134;5.420;2023-06-22T08:09:07;101917.63;;;23.08;62.83
79455;BME280;68900;52.134;5.420;2023-06-22T08:16:38;101902.66;;;23.30;62.55
79455;BME280;68900;52.134;5.420;2023-06-22T08:19:19;101895.03;;;23.39;62.23
79455;BME280;68900;52.134;5.420;2023-06-22T08:21:47;101892.03;;;23.41;62.48
79455;BME280;68900;52.134;5.420;2023-06-22T08:24:39;101887.44;;;23.48;61.47
79455;BME280;68900;52.134;5.420;2023-06-22T08:27:38;101886.81;;;23.78;60.62
79455;BME280;68900;52.134;5.420;2023-06-22T08:30:24;101875.78;;;23.65;60.48
79455;BME280;68900;52.134;5.420;2023-06-22T08:33:11;101861.34;;;23.50;60.28
79455;BME280;68900;52.134;5.420;2023-06-22T08:35:48;101859.88;;;23.61;59.79
79455;BME280;68900;52.134;5.420;2023-06-22T08:38:24;101859.44;;;23.64;59.75
79455;BME280;68900;52.134;5.420;2023-06-22T08:41:09;101857.13;;;23.81;60.02
79455;BME280;68900;52.134;5.420;2023-06-22T08:43:40;101857.31;;;23.92;59.26
79455;BME280;68900;52.134;5.420;2023-06-22T08:49:51;101856.22;;;24.06;57.09
79455;BME280;68900;52.134;5.420;2023-06-22T09:19:30;101852.81;;;24.75;51.78
79455;BME280;68900;52.134;5.420;2023-06-22T09:25:52;101839.81;;;24.95;51.49
79455;BME280;68900;52.134;5.420;2023-06-22T11:36:20;101806.72;;;24.82;55.11
79455;BME280;68900;52.134;5.420;2023-06-22T11:39:08;101796.47;;;24.96;54.99
79455;BME280;68900;52.134;5.420;2023-06-22T11:42:20;101798.59;;;24.94;54.96
79455;BME280;68900;52.134;5.420;2023-06-22T11:48:48;101783.31;;;24.85;55.38
79455;BME280;68900;52.134;5.420;2023-06-22T11:51:32;101781.84;;;24.89;55.67
79455;BME280;68900;52.134;5.420;2023-06-22T12:54:21;101743.38;;;24.18;58.76
79455;BME280;68900;52.134;5.420;2023-06-22T13:37:13;101721.06;;;23.29;63.82
79455;BME280;68900;52.134;5.420;2023-06-22T14:13:27;101704.97;;;22.93;69.36
79455;BME280;68900;52.134;5.420;2023-06-22T14:16:30;101697.31;;;22.75;70.15
79455;BME280;68900;52.134;5.420;2023-06-22T14:19:35;101698.41;;;22.81;70.20
79455;BME280;68900;52.134;5.420;2023-06-22T14:36:37;101700.34;;;22.20;72.68
79455;BME280;68900;52.134;5.420;2023-06-22T15:06:54;101692.69;;;21.27;75.34
79455;BME280;68900;52.134;5.420;2023-06-22T15:10:05;101683.97;;;21.23;74.72
79455;BME280;68900;52.134;5.420;2023-06-22T15:12:35;101685.22;;;21.21;73.88
79455;BME280;68900;52.134;5.420;2023-06-22T15:15:08;101680.75;;;21.13;73.80
79455;BME280;68900;52.134;5.420;2023-06-22T15:18:04;101683.84;;;21.10;75.02
79455;BME280;68900;52.134;5.420;2023-06-22T15:20:36;101676.22;;;21.05;74.29
79455;BME280;68900;52.134;5.420;2023-06-22T15:23:22;101661.84;;;21.03;75.37
79455;BME280;68900;52.134;5.420;2023-06-22T15:25:50;101666.28;;;21.04;74.75
79455;BME280;68900;52.134;5.420;2023-06-22T15:28:31;101663.16;;;21.07;74.95
79455;BME280;68900;52.134;5.420;2023-06-22T15:31:53;101672.25;;;21.08;75.43
79455;BME280;68900;52.134;5.420;2023-06-22T15:34:26;101665.22;;;21.05;76.22
79455;BME280;68900;52.134;5.420;2023-06-22T15:38:04;101672.31;;;20.93;76.19
79455;BME280;68900;52.134;5.420;2023-06-22T15:40:47;101671.06;;;20.96;77.35
79455;BME280;68900;52.134;5.420;2023-06-22T15:47:23;101667.84;;;21.13;77.72
79455;BME280;68900;52.134;5.420;2023-06-22T16:25:18;101645.94;;;20.92;80.89
79455;BME280;68900;52.134;5.420;2023-06-22T16:31:33;101642.78;;;20.95;80.43
79455;BME280;68900;52.134;5.420;2023-06-22T16:34:02;101648.13;;;21.03;79.88
79455;BME280;68900;52.134;5.420;2023-06-22T16:36:35;101649.81;;;21.04;78.91
79455;BME280;68900;52.134;5.420;2023-06-22T16:39:02;101646.38;;;20.96;78.45
79455;BME280;68900;52.134;5.420;2023-06-22T16:41:30;101649.94;;;20.68;79.88
79455;BME280;68900;52.134;5.420;2023-06-22T16:43:59;101653.94;;;20.66;79.70
79455;BME280;68900;52.134;5.420;2023-06-22T16:46:37;101657.56;;;20.66;81.09
79455;BME280;68900;52.134;5.420;2023-06-22T16:49:32;101663.53;;;20.55;79.82
79455;BME280;68900;52.134;5.420;2023-06-22T16:52:18;101669.53;;;20.44;80.69
79455;BME280;68900;52.134;5.420;2023-06-22T16:54:46;101663.81;;;20.39;80.59
79455;BME280;68900;52.134;5.420;2023-06-22T16:57:26;101676.59;;;20.53;80.58
79455;BME280;68900;52.134;5.420;2023-06-22T16:59:53;101685.03;;;20.52;79.92
79455;BME280;68900;52.134;5.420;2023-06-22T17:02:22;101681.19;;;20.46;79.43
79455;BME280;68900;52.134;5.420;2023-06-22T17:50:05;101710.56;;;20.52;81.60
79455;BME280;68900;52.134;5.420;2023-06-22T17:52:34;101711.34;;;20.46;83.14
79455;BME280;68900;52.134;5.420;2023-06-22T17:55:04;101699.25;;;20.41;82.53
79455;BME280;68900;52.134;5.420;2023-06-22T17:57:55;101700.22;;;20.33;82.82
79455;BME280;68900;52.134;5.420;2023-06-22T18:00:25;101700.00;;;20.35;82.94
79455;BME280;68900;52.134;5.420;2023-06-22T18:03:04;101706.44;;;20.27;83.32
79455;BME280;68900;52.134;5.420;2023-06-22T18:05:35;101691.75;;;20.13;84.01
79455;BME280;68900;52.134;5.420;2023-06-22T18:08:04;101699.22;;;20.05;84.18
79455;BME280;68900;52.134;5.420;2023-06-22T18:10:33;101699.50;;;20.10;84.03
79455;BME280;68900;52.134;5.420;2023-06-22T18:13:01;101696.69;;;20.03;84.28
79455;BME280;68900;52.134;5.420;2023-06-22T18:15:30;101695.91;;;20.09;84.32
79455;BME280;68900;52.134;5.420;2023-06-22T18:17:58;101696.19;;;20.14;84.34
79455;BME280;68900;52.134;5.420;2023-06-22T18:20:26;101706.47;;;20.12;83.92
79455;BME280;68900;52.134;5.420;2023-06-22T18:22:53;101697.06;;;20.00;84.14
79455;BME280;68900;52.134;5.420;2023-06-22T18:25:20;101706.50;;;19.98;83.92
79455;BME280;68900;52.134;5.420;2023-06-22T18:27:48;101699.94;;;19.92;83.61
79455;BME280;68900;52.134;5.420;2023-06-22T18:30:16;101702.66;;;19.92;83.44
79455;BME280;68900;52.134;5.420;2023-06-22T18:32:42;101695.66;;;19.90;82.70
79455;BME280;68900;52.134;5.420;2023-06-22T18:35:10;101704.19;;;19.80;83.30
79455;BME280;68900;52.134;5.420;2023-06-22T18:37:39;101696.75;;;19.74;82.66
79455;BME280;68900;52.134;5.420;2023-06-22T18:40:08;101691.63;;;19.71;82.43
79455;BME280;68900;52.134;5.420;2023-06-22T18:42:49;101692.03;;;19.68;81.91
79455;BME280;68900;52.134;5.420;2023-06-22T18:45:31;101684.44;;;19.70;82.18
79455;BME280;68900;52.134;5.420;2023-06-22T18:48:03;101684.09;;;19.58;81.75
79455;BME280;68900;52.134;5.420;2023-06-22T18:50:47;101688.31;;;19.61;81.38
79455;BME280;68900;52.134;5.420;2023-06-22T18:53:36;101689.56;;;19.58;81.81
79455;BME280;68900;52.134;5.420;2023-06-22T18:56:21;101689.94;;;19.55;81.55
79455;BME280;68900;52.134;5.420;2023-06-22T18:58:56;101688.03;;;19.41;81.56
79455;BME280;68900;52.134;5.420;2023-06-22T19:01:23;101692.47;;;19.42;82.03
79455;BME280;68900;52.134;5.420;2023-06-22T19:04:14;101686.03;;;19.35;81.89
79455;BME280;68900;52.134;5.420;2023-06-22T19:07:01;101687.63;;;19.29;81.65
79455;BME280;68900;52.134;5.420;2023-06-22T19:09:29;101681.59;;;19.34;81.96
79455;BME280;68900;52.134;5.420;2023-06-22T19:12:19;101682.38;;;19.28;81.59
79455;BME280;68900;52.134;5.420;2023-06-22T19:17:32;101687.53;;;19.23;82.78
79455;BME280;68900;52.134;5.420;2023-06-22T19:20:03;101702.25;;;19.22;82.33
79455;BME280;68900;52.134;5.420;2023-06-22T19:22:56;101703.28;;;19.21;81.91
79455;BME280;68900;52.134;5.420;2023-06-22T19:25:27;101706.19;;;19.19;81.73
79455;BME280;68900;52.134;5.420;2023-06-22T19:27:57;101714.78;;;19.16;81.57
79455;BME280;68900;52.134;5.420;2023-06-22T19:30:41;101733.47;;;19.13;81.52
79455;BME280;68900;52.134;5.420;2023-06-22T19:33:21;101729.22;;;19.10;81.20
79455;BME280;68900;52.134;5.420;2023-06-22T19:35:56;101730.75;;;19.13;81.59
79455;BME280;68900;52.134;5.420;2023-06-22T19:38:46;101743.38;;;19.14;80.70
79455;BME280;68900;52.134;5.420;2023-06-22T19:41:12;101744.88;;;19.16;81.33
79455;BME280;68900;52.134;5.420;2023-06-22T19:43:57;101744.88;;;19.16;81.37
79455;BME280;68900;52.134;5.420;2023-06-22T19:46:38;101739.19;;;19.03;80.15
79455;BME280;68900;52.134;5.420;2023-06-22T19:49:08;101740.41;;;19.01;79.01
79455;BME280;68900;52.134;5.420;2023-06-22T19:51:35;101741.63;;;18.98;79.17
79455;BME280;68900;52.134;5.420;2023-06-22T19:54:17;101750.56;;;18.92;79.29
79455;BME280;68900;52.134;5.420;2023-06-22T19:59:54;101765.66;;;18.88;78.91
79455;BME280;68900;52.134;5.420;2023-06-22T20:05:19;101779.16;;;18.67;78.75
79455;BME280;68900;52.134;5.420;2023-06-22T20:08:04;101781.69;;;18.68;79.20
79455;BME280;68900;52.134;5.420;2023-06-22T20:10:49;101787.28;;;18.75;78.89
79455;BME280;68900;52.134;5.420;2023-06-22T20:13:31;101794.94;;;18.79;79.38
79455;BME280;68900;52.134;5.420;2023-06-22T20:16:23;101808.06;;;18.84;79.46
79455;BME280;68900;52.134;5.420;2023-06-22T20:19:11;101812.81;;;18.90;79.24
79455;BME280;68900;52.134;5.420;2023-06-22T20:22:03;101820.34;;;18.88;78.89
79455;BME280;68900;52.134;5.420;2023-06-22T20:24:30;101828.56;;;18.88;79.01
79455;BME280;68900;52.134;5.420;2023-06-22T20:27:16;101826.19;;;18.85;78.81
79455;BME280;68900;52.134;5.420;2023-06-22T20:29:55;101826.84;;;18.87;80.18
79455;BME280;68900;52.134;5.420;2023-06-22T20:32:27;101829.34;;;18.96;80.11
79455;BME280;68900;52.134;5.420;2023-06-22T20:35:04;101828.25;;;19.06;78.61
79455;BME280;68900;52.134;5.420;2023-06-22T20:37:53;101829.47;;;19.03;79.17
79455;BME280;68900;52.134;5.420;2023-06-22T20:41:11;101830.19;;;18.97;79.13
79455;BME280;68900;52.134;5.420;2023-06-22T20:43:44;101818.16;;;18.83;79.94
79455;BME280;68900;52.134;5.420;2023-06-22T20:46:56;101827.44;;;18.74;80.13
79455;BME280;68900;52.134;5.420;2023-06-22T20:49:25;101815.34;;;18.69;81.10
79455;BME280;68900;52.134;5.420;2023-06-22T20:52:11;101816.41;;;18.60;80.97
79455;BME280;68900;52.134;5.420;2023-06-22T20:54:45;101816.94;;;18.63;80.34
79455;BME280;68900;52.134;5.420;2023-06-22T20:57:18;101818.44;;;18.66;79.77
79455;BME280;68900;52.134;5.420;2023-06-22T20:59:45;101823.22;;;18.64;79.66
79455;BME280;68900;52.134;5.420;2023-06-22T21:02:30;101823.22;;;18.64;79.83
79455;BME280;68900;52.134;5.420;2023-06-22T21:05:01;101834.69;;;18.67;79.89
79455;BME280;68900;52.134;5.420;2023-06-22T21:07:48;101834.69;;;18.67;79.66
79455;BME280;68900;52.134;5.420;2023-06-22T21:10:15;101831.44;;;18.64;79.90
79455;BME280;68900;52.134;5.420;2023-06-22T21:13:02;101827.72;;;18.57;79.81
79455;BME280;68900;52.134;5.420;2023-06-22T21:19:28;101840.38;;;18.58;79.87
79455;BME280;68900;52.134;5.420;2023-06-22T21:26:11;101846.19;;;18.54;79.06
79455;BME280;68900;52.134;5.420;2023-06-22T21:28:38;101849.97;;;18.53;80.01
79455;BME280;68900;52.134;5.420;2023-06-22T21:31:32;101858.16;;;18.53;79.86
79455;BME280;68900;52.134;5.420;2023-06-22T21:33:59;101862.25;;;18.49;79.60
79455;BME280;68900;52.134;5.420;2023-06-22T21:36:32;101859.00;;;18.46;79.78
79455;BME280;68900;52.134;5.420;2023-06-22T21:38:58;101856.16;;;18.39;80.05
79455;BME280;68900;52.134;5.420;2023-06-22T21:41:34;101868.09;;;18.38;79.71
79455;BME280;68900;52.134;5.420;2023-06-22T21:44:01;101872.22;;;18.34;79.50
79455;BME280;68900;52.134;5.420;2023-06-22T21:46:30;101879.53;;;18.42;79.42
79455;BME280;68900;52.134;5.420;2023-06-22T21:48:57;101881.22;;;18.43;79.52
79455;BME280;68900;52.134;5.420;2023-06-22T21:51:23;101875.94;;;18.41;78.90
79455;BME280;68900;52.134;5.420;2023-06-22T21:53:50;101889.91;;;18.46;79.97
79455;BME280;68900;52.134;5.420;2023-06-22T21:56:32;101878.66;;;18.41;79.60
79455;BME280;68900;52.134;5.420;2023-06-22T21:59:12;101879.88;;;18.39;79.65
79455;BME280;68900;52.134;5.420;2023-06-22T22:01:38;101893.22;;;18.34;79.59
79455;BME280;68900;52.134;5.420;2023-06-22T22:04:05;101892.00;;;18.36;79.65
79455;BME280;68900;52.134;5.420;2023-06-22T22:06:33;101881.75;;;18.38;80.50
79455;BME280;68900;52.134;5.420;2023-06-22T22:09:01;101880.75;;;18.31;80.76
79455;BME280;68900;52.134;5.420;2023-06-22T22:11:35;101881.63;;;18.24;80.19
79455;BME280;68900;52.134;5.420;2023-06-22T22:14:02;101894.44;;;18.23;80.57
79455;BME280;68900;52.134;5.420;2023-06-22T22:16:28;101880.78;;;18.23;80.30
79455;BME280;68900;52.134;5.420;2023-06-22T22:19:09;101895.47;;;18.22;80.70
79455;BME280;68900;52.134;5.420;2023-06-22T22:21:41;101885.75;;;18.20;80.37
79455;BME280;68900;52.134;5.420;2023-06-22T22:24:09;101894.81;;;18.20;80.42
79455;BME280;68900;52.134;5.420;2023-06-22T22:26:36;101888.13;;;18.23;79.94
79455;BME280;68900;52.134;5.420;2023-06-22T22:29:05;101894.78;;;18.28;80.58
79455;BME280;68900;52.134;5.420;2023-06-22T22:31:32;101897.50;;;18.28;80.03
79455;BME280;68900;52.134;5.420;2023-06-22T22:34:05;101896.31;;;18.23;80.10
79455;BME280;68900;52.134;5.420;2023-06-22T22:36:32;101898.22;;;18.14;80.79
79455;BME280;68900;52.134;5.420;2023-06-22T22:38:59;101898.22;;;18.14;81.01
79455;BME280;68900;52.134;5.420;2023-06-22T22:41:27;101910.00;;;18.15;80.41
79455;BME280;68900;52.134;5.420;2023-06-22T22:44:05;101911.03;;;18.14;80.38
79455;BME280;68900;52.134;5.420;2023-06-22T22:46:32;101913.44;;;18.08;81.05
79455;BME280;68900;52.134;5.420;2023-06-22T22:49:03;101916.00;;;18.10;80.74
79455;BME280;68900;52.134;5.420;2023-06-22T22:51:31;101921.81;;;18.07;80.71
79455;BME280;68900;52.134;5.420;2023-06-22T22:54:00;101922.84;;;18.06;80.48
79455;BME280;68900;52.134;5.420;2023-06-22T22:56:26;101927.09;;;18.08;80.43
79455;BME280;68900;52.134;5.420;2023-06-22T22:59:02;101930.88;;;18.07;80.04
79455;BME280;68900;52.134;5.420;2023-06-22T23:01:29;101936.84;;;18.03;80.14
79455;BME280;68900;52.134;5.420;2023-06-22T23:03:55;101937.50;;;18.05;79.57
79455;BME280;68900;52.134;5.420;2023-06-22T23:06:22;101938.53;;;18.04;80.05
79455;BME280;68900;52.134;5.420;2023-06-22T23:08:50;101943.66;;;17.99;79.88
79455;BME280;68900;52.134;5.420;2023-06-22T23:11:25;101954.56;;;17.99;79.51
79455;BME280;68900;52.134;5.420;2023-06-22T23:13:54;101949.13;;;17.99;79.23
79455;BME280;68900;52.134;5.420;2023-06-22T23:16:26;101953.06;;;17.96;78.82
79455;BME280;68900;52.134;5.420;2023-06-22T23:18:53;101954.94;;;17.96;79.67